Historique des mesures à Cassis (13260), France
Quotidien Résumé Fevrier 27, 2017 Unités:  Métrique    US   Métrique/US
« Précédent (Jour)
Suivant (Jour) »
Quotidien Hebdomadaire Mensuel Annuel Période au choix
  Maximum: Minimum: Moyenne:
Température: TemperatureC °C 9.1 °C 11.5 °C
Point de rosée: DewpointC °C 5.6 °C 8.4 °C
Humidité: Humidity % 75 % 77 %
Vitesse du vent: 0 km/h 0 km/h 1 km/h
Rafales: 0 km/h - -
Vent:- - SE
Pression: PressurehPa hPa 1007.7 hPa -
Précipitations: 0.5 mm    
Historical Graphs
 
 
Mesures pour : Fevrier 27, 2017
Heure Temperature Point de rosée Pression Vent Vitesse du vent Rafales Humidité Pluie (par heure) Conditions
TemperatureC °C DewpointC °C PressurehPa hPa Calm     Humidity % HourlyPrecipMM mm SoftwareType W/m2
00:10 9.4 °C 5.6 °C 1014.4 hPa Calm     77 % 0.0 mm open2300-1.11 W/m2
01:11 9.4 °C 5.7 °C 1014.4 hPa Calm     78 % 0.0 mm open2300-1.11 W/m2
02:10 9.1 °C 5.6 °C 1014.1 hPa Calm     79 % 0.0 mm open2300-1.11 W/m2
03:11 9.4 °C 6.1 °C 1013.8 hPa Calm     80 % 0.0 mm open2300-1.11 W/m2
04:10 9.9 °C 6.8 °C 1013.4 hPa Calm     81 % 0.0 mm open2300-1.11 W/m2
05:11 10.4 °C 7.1 °C 1013.1 hPa Calm     80 % 0.0 mm open2300-1.11 W/m2
06:10 10.9 °C 7.6 °C 1013.1 hPa ESE 2.9 km/h 2.9 km/h 80 % 0.0 mm open2300-1.11 W/m2
07:11 11.1 °C 7.9 °C 1013.4 hPa Calm   3.4 km/h 81 % 0.0 mm open2300-1.11 W/m2
08:10 11.4 °C 8.3 °C 1013.1 hPa Calm     81 % 0.0 mm open2300-1.11 W/m2
09:11 12.1 °C 8.8 °C 1013.1 hPa Calm     80 % 0.0 mm open2300-1.11 W/m2
10:10 12.4 °C 8.7 °C 1013.4 hPa Calm   2.3 km/h 78 % 0.0 mm open2300-1.11 W/m2
11:11 13.1 °C 9.1 °C 1013.4 hPa Calm     77 % 0.0 mm open2300-1.11 W/m2
12:10 13.6 °C 9.4 °C 1013.1 hPa Calm     76 % 0.0 mm open2300-1.11 W/m2
13:11 13.8 °C 9.4 °C 1012.1 hPa SE 9.8 km/h 9.8 km/h 75 % 0.0 mm open2300-1.11 W/m2
14:10 13.4 °C 10.0 °C 1011.1 hPa Calm     80 % 0.0 mm open2300-1.11 W/m2
15:11 13.5 °C 10.4 °C 1010.7 hPa Calm     82 % 0.0 mm open2300-1.11 W/m2
16:10 13.5 °C 10.3 °C 1010.4 hPa Calm     81 % 0.0 mm open2300-1.11 W/m2
17:11 13.4 °C 10.0 °C 1010.0 hPa Calm     80 % 0.0 mm open2300-1.11 W/m2
18:10 12.9 °C 10.1 °C 1009.4 hPa Calm     83 % 0.5 mm open2300-1.11 W/m2
19:11 12.9 °C 10.2 °C 1008.7 hPa Calm   8 km/h 84 % 0.0 mm open2300-1.11 W/m2
20:10 13.1 °C 10.6 °C 1008.7 hPa Calm   9.8 km/h 85 % 0.0 mm open2300-1.11 W/m2
21:11 13.3 °C 10.8 °C 1008.4 hPa Calm   14.5 km/h 85 % 0.0 mm open2300-1.11 W/m2
22:10 13.3 °C 10.8 °C 1008.0 hPa SE 12.2 km/h 12.2 km/h 85 % 0.0 mm open2300-1.11 W/m2
23:11 13.4 °C 10.9 °C 1007.7 hPa Calm   9.8 km/h 85 % 0.0 mm open2300-1.11 W/m2
Observations météo à CASSIS
WU-History script by Weather Underground - 1 mb